Time;durP1;ratioP1;P1;durP2;ratioP2;P2;SDS_P1;SDS_P2;PMS_P1;PMS_P2;Temp;Humidity;BMP_temperature;BMP_pressure;BME280_temperature;BME280_humidity;BME280_pressure;Samples;Min_cycle;Max_cycle;Signal;HPM_P1;HPM_P2
2023/03/15 00:02:15;;;;;;;10.33;8.10;;;;;;;7.53;53.83;98649.53;5142285;28;20180;-54
2023/03/15 00:04:43;;;;;;;9.17;7.10;;;;;;;7.54;54.55;98652.94;5142415;28;20189;-53
2023/03/15 00:07:10;;;;;;;7.93;7.13;;;;;;;7.38;55.34;98646.75;5142293;28;20154;-54
2023/03/15 00:09:37;;;;;;;10.10;7.60;;;;;;;7.35;55.31;98646.72;5142240;28;20176;-53
2023/03/15 00:12:04;;;;;;;10.50;7.50;;;;;;;7.23;56.33;98641.41;5149135;27;20168;-54
2023/03/15 00:14:31;;;;;;;13.57;7.47;;;;;;;7.28;56.65;98642.31;5162849;27;20153;-54
2023/03/15 00:16:57;;;;;;;14.43;8.63;;;;;;;7.26;56.70;98641.44;5162626;27;20222;-53
2023/03/15 00:19:24;;;;;;;12.43;7.83;;;;;;;7.28;57.59;98644.88;5162676;27;20164;-53
2023/03/15 00:21:52;;;;;;;11.20;7.43;;;;;;;7.12;58.27;98638.69;5160028;27;20160;-54
2023/03/15 00:24:19;;;;;;;10.80;7.53;;;;;;;7.10;58.79;98639.50;5142882;27;20173;-54
2023/03/15 00:26:46;;;;;;;12.10;7.67;;;;;;;7.00;58.79;98630.81;5141681;28;20154;-53
2023/03/15 00:29:13;;;;;;;10.10;7.90;;;;;;;7.07;59.03;98634.34;5159407;27;20167;-55
2023/03/15 00:31:39;;;;;;;11.67;8.30;;;;;;;7.08;58.70;98629.25;5162482;27;20168;-53
2023/03/15 00:34:06;;;;;;;9.17;7.10;;;;;;;7.08;58.80;98631.81;5162315;27;20158;-53
2023/03/15 00:36:33;;;;;;;10.63;7.47;;;;;;;7.02;59.75;98623.19;5162310;27;20157;-53
2023/03/15 00:39:02;;;;;;;10.83;7.07;;;;;;;6.88;60.22;98629.75;5162204;27;20167;-54
2023/03/15 00:41:29;;;;;;;11.07;7.40;;;;;;;6.69;61.41;98626.03;5162230;27;20154;-53
2023/03/15 00:43:55;;;;;;;13.43;8.33;;;;;;;6.61;62.14;98613.97;5162111;27;20190;-53
2023/03/15 00:46:22;;;;;;;9.13;7.80;;;;;;;6.68;62.33;98615.78;5161681;27;20202;-53
2023/03/15 00:48:50;;;;;;;10.80;8.00;;;;;;;6.47;62.89;98595.88;5162103;27;20174;-52
2023/03/15 00:51:18;;;;;;;9.90;7.87;;;;;;;6.29;63.26;98570.03;5161912;27;20165;-53
2023/03/15 00:53:47;;;;;;;9.80;7.73;;;;;;;6.52;64.24;98615.53;5161891;27;20161;-52
2023/03/15 00:56:17;;;;;;;10.53;8.20;;;;;;;6.57;64.10;98622.41;5161846;27;20157;-53
2023/03/15 00:58:44;;;;;;;13.43;8.23;;;;;;;6.55;63.66;98614.72;5161630;27;20153;-51
2023/03/15 01:01:14;;;;;;;11.70;8.53;;;;;;;6.45;64.04;98611.16;5161865;27;20200;-53
2023/03/15 01:03:41;;;;;;;12.43;9.33;;;;;;;6.18;63.68;98559.63;5161825;27;20188;-52
2023/03/15 01:06:10;;;;;;;12.40;9.33;;;;;;;6.38;63.71;98603.34;5161819;27;20151;-53
2023/03/15 01:08:37;;;;;;;13.32;10.00;;;;;;;6.34;63.20;98596.50;5151738;27;20436;-53
2023/03/15 01:11:05;;;;;;;12.47;9.23;;;;;;;6.41;63.91;98595.75;5140844;28;20158;-53
2023/03/15 01:13:33;;;;;;;11.55;8.90;;;;;;;6.20;64.91;98580.06;5140516;28;20415;-53
2023/03/15 01:16:00;;;;;;;11.70;9.13;;;;;;;6.22;65.13;98589.47;5140841;28;20157;-52
2023/03/15 01:18:27;;;;;;;12.97;8.70;;;;;;;6.19;65.79;98583.44;5140795;28;20154;-52
2023/03/15 01:20:54;;;;;;;14.07;8.97;;;;;;;6.26;65.35;98592.94;5140562;28;20218;-52
2023/03/15 01:23:21;;;;;;;9.47;8.47;;;;;;;6.31;65.55;98592.19;5140631;28;20201;-52
2023/03/15 01:25:48;;;;;;;15.43;8.93;;;;;;;6.36;65.85;98597.38;5140643;28;20167;-53
2023/03/15 01:28:15;;;;;;;11.70;8.83;;;;;;;6.32;66.75;98593.91;5140247;28;20218;-53
2023/03/15 01:30:50;;;;;;;12.05;10.68;;;;;;;6.35;67.18;98598.19;5139819;28;20433;-53
2023/03/15 01:33:17;;;;;;;14.27;9.43;;;;;;;6.45;65.98;98585.66;5140628;28;20180;-53
2023/03/15 01:35:44;;;;;;;15.57;9.53;;;;;;;6.39;66.18;98580.44;5140458;28;20225;-54
2023/03/15 01:38:11;;;;;;;13.50;9.30;;;;;;;6.40;66.96;98577.03;5140640;28;20156;-54
2023/03/15 01:40:42;;;;;;;16.13;9.80;;;;;;;6.37;67.68;98569.31;5140464;28;20157;-53
2023/03/15 01:43:16;;;;;;;15.63;9.80;;;;;;;5.69;67.16;98481.34;5140474;28;20187;-52
2023/03/15 01:46:07;;;;;;;14.73;10.70;;;;;;;6.24;67.25;98577.59;5146558;27;20193;-53
2023/03/15 01:48:38;;;;;;;12.23;8.73;;;;;;;6.13;67.88;98562.91;5161082;27;20217;-51
2023/03/15 01:51:11;;;;;;;11.13;8.63;;;;;;;6.17;68.68;98570.66;5161045;27;20147;-53
2023/03/15 01:53:41;;;;;;;13.13;9.43;;;;;;;6.14;68.56;98567.19;5161086;27;20157;-52
2023/03/15 01:56:09;;;;;;;10.03;8.63;;;;;;;6.08;68.86;98583.25;5160928;27;20212;-53
2023/03/15 01:58:38;;;;;;;13.40;8.47;;;;;;;6.02;69.49;98566.94;5160875;27;20159;-52
2023/03/15 02:01:08;;;;;;;14.47;9.10;;;;;;;6.06;69.26;98579.81;5160631;27;20167;-53
2023/03/15 02:03:45;;;;;;;10.27;9.10;;;;;;;5.99;69.41;98584.78;5160798;27;20176;-51
2023/03/15 02:06:17;;;;;;;12.83;9.30;;;;;;;6.01;69.77;98576.31;5160967;28;20150;-52
2023/03/15 02:08:49;;;;;;;11.07;8.60;;;;;;;6.02;70.26;98570.38;5157325;27;20176;-53
2023/03/15 02:11:19;;;;;;;10.47;8.50;;;;;;;5.96;70.01;98566.88;5164025;27;20178;-52
2023/03/15 02:13:48;;;;;;;11.68;9.93;;;;;;;5.96;71.35;98567.69;5164772;27;20454;-53
2023/03/15 02:16:18;;;;;;;12.00;9.00;;;;;;;6.00;70.13;98569.50;5164929;27;20180;-54
2023/03/15 02:18:45;;;;;;;11.77;8.23;;;;;;;5.98;70.46;98560.97;5165017;27;20154;-53
2023/03/15 02:21:25;;;;;;;11.57;8.90;;;;;;;6.04;70.37;98563.63;5164955;27;20158;-53
2023/03/15 02:24:03;;;;;;;15.40;8.87;;;;;;;6.05;70.39;98551.72;5164907;27;20175;-51
2023/03/15 02:26:35;;;;;;;11.00;9.33;;;;;;;6.03;69.75;98548.28;5164920;27;20226;-51
2023/03/15 02:29:03;;;;;;;10.80;9.07;;;;;;;6.10;70.46;98561.16;5164726;27;20189;-51
2023/03/15 02:31:36;;;;;;;10.00;8.80;;;;;;;6.16;69.89;98555.31;5164612;27;20166;-53
2023/03/15 02:34:05;;;;;;;12.33;9.10;;;;;;;6.11;70.19;98546.75;5164706;27;20171;-51
2023/03/15 02:36:33;;;;;;;13.27;8.77;;;;;;;6.15;70.72;98556.19;5164457;27;20162;-52
2023/03/15 02:39:00;;;;;;;12.47;9.00;;;;;;;6.12;70.71;98556.97;5164560;27;20157;-52
2023/03/15 02:41:30;;;;;;;13.30;10.50;;;;;;;6.11;70.41;98552.69;5164154;27;20405;-52
2023/03/15 02:44:02;;;;;;;13.63;9.50;;;;;;;5.89;70.16;98520.00;5164349;27;20206;-53
2023/03/15 02:46:30;;;;;;;13.30;9.13;;;;;;;6.12;70.89;98551.03;5164566;27;20153;-51
2023/03/15 02:48:58;;;;;;;11.50;9.00;;;;;;;6.16;70.74;98552.78;5164286;27;20162;-53
2023/03/15 02:51:28;;;;;;;10.80;8.50;;;;;;;6.05;71.31;98538.97;5164286;27;20154;-52
2023/03/15 02:53:55;;;;;;;11.33;8.63;;;;;;;6.13;70.39;98548.47;5164227;27;20257;-53
2023/03/15 02:56:22;;;;;;;11.43;9.23;;;;;;;6.16;70.87;98550.22;5164186;27;20161;-53
2023/03/15 02:58:48;;;;;;;16.97;9.50;;;;;;;6.10;70.70;98538.22;5164269;27;20174;-53
2023/03/15 03:01:16;;;;;;;11.80;9.67;;;;;;;6.02;71.28;98546.56;5164203;27;20157;-53
2023/03/15 03:03:46;;;;;;;12.23;9.40;;;;;;;5.64;71.16;98477.84;5164116;27;20226;-53
2023/03/15 03:06:15;;;;;;;13.37;9.80;;;;;;;5.97;72.49;98536.28;5164210;27;20162;-53
2023/03/15 03:08:46;;;;;;;11.33;8.83;;;;;;;5.85;72.44;98525.88;5164225;27;20154;-54
2023/03/15 03:11:13;;;;;;;15.03;9.87;;;;;;;5.81;73.32;98527.47;5164038;27;20157;-54
2023/03/15 03:13:41;;;;;;;17.23;9.80;;;;;;;5.84;72.89;98529.22;5164210;27;20161;-54
2023/03/15 03:16:11;;;;;;;11.05;8.50;;;;;;;5.88;72.56;98525.91;5163772;27;20454;-53
2023/03/15 03:18:38;;;;;;;14.20;9.60;;;;;;;5.90;73.09;98531.91;5163983;27;20156;-53
2023/03/15 03:21:08;;;;;;;14.23;9.57;;;;;;;5.86;73.38;98531.00;5163809;27;20153;-53
2023/03/15 03:23:35;;;;;;;13.43;10.63;;;;;;;5.90;72.88;98525.13;5145034;27;20418;-53
2023/03/15 03:26:03;;;;;;;13.47;9.63;;;;;;;6.03;72.86;98523.66;5142985;28;20180;-53
2023/03/15 03:28:32;;;;;;;13.40;9.43;;;;;;;5.98;73.04;98519.31;5142743;28;20189;-53
2023/03/15 03:30:58;;;;;;;12.97;9.20;;;;;;;5.89;73.97;98527.63;5162734;27;20176;-52
2023/03/15 03:33:25;;;;;;;12.53;8.63;;;;;;;5.82;73.97;98528.34;5163330;27;20174;-53
2023/03/15 03:35:53;;;;;;;14.13;9.17;;;;;;;5.82;73.93;98528.34;5155241;27;20167;-53
2023/03/15 03:38:22;;;;;;;13.03;9.43;;;;;;;5.71;74.03;98517.06;5142986;28;20153;-53
2023/03/15 03:40:48;;;;;;;9.60;8.33;;;;;;;5.63;75.44;98522.00;5142820;28;20173;-54
2023/03/15 03:43:15;;;;;;;13.00;9.17;;;;;;;5.56;75.79;98525.25;5142763;28;20270;-53
2023/03/15 03:45:42;;;;;;;14.03;9.40;;;;;;;5.55;76.03;98523.53;5142920;28;20155;-52
2023/03/15 03:48:09;;;;;;;11.97;9.13;;;;;;;5.53;76.18;98519.22;5142841;28;20158;-52
2023/03/15 03:50:35;;;;;;;13.03;8.47;;;;;;;5.55;76.20;98512.50;5142596;28;20171;-53
2023/03/15 03:53:02;;;;;;;12.60;9.53;;;;;;;5.48;76.47;98510.66;5142773;28;20154;-53
2023/03/15 03:55:32;;;;;;;12.80;9.47;;;;;;;5.37;76.64;98507.88;5142752;28;20168;-52
2023/03/15 03:57:59;;;;;;;14.43;9.73;;;;;;;5.42;76.66;98516.47;5142506;28;20157;-53
2023/03/15 04:00:26;;;;;;;11.40;9.10;;;;;;;5.49;76.79;98523.44;5142436;28;20154;-53
2023/03/15 04:02:53;;;;;;;12.07;9.90;;;;;;;5.44;77.23;98521.63;5142477;28;20167;-52
2023/03/15 04:05:21;;;;;;;17.50;10.50;;;;;;;5.54;77.03;98523.50;5150774;27;20193;-53
2023/03/15 04:07:47;;;;;;;12.70;10.13;;;;;;;5.57;76.37;98529.53;5162942;27;20160;-52
2023/03/15 04:10:14;;;;;;;13.80;9.47;;;;;;;5.59;75.61;98525.31;5163052;27;20167;-52
2023/03/15 04:12:43;;;;;;;13.60;9.70;;;;;;;5.49;76.44;98510.69;5162938;27;20172;-52
2023/03/15 04:15:11;;;;;;;13.60;10.87;;;;;;;5.51;76.33;98511.56;5162955;27;20152;-53
2023/03/15 04:17:38;;;;;;;13.40;9.27;;;;;;;5.47;76.23;98508.91;5162785;27;20183;-52
2023/03/15 04:20:07;;;;;;;16.63;10.40;;;;;;;5.55;76.59;98520.97;5162865;27;20175;-53
2023/03/15 04:22:34;;;;;;;10.63;9.27;;;;;;;5.57;77.13;98518.47;5161864;27;20162;-53
2023/03/15 04:25:01;;;;;;;17.00;11.43;;;;;;;5.49;76.83;98514.91;5141762;28;20272;-52
2023/03/15 04:27:28;;;;;;;12.33;10.03;;;;;;;5.39;77.33;98493.47;5141573;28;20211;-53
2023/03/15 04:29:56;;;;;;;12.27;9.93;;;;;;;5.27;77.57;98496.63;5141632;28;20235;-53
2023/03/15 04:32:23;;;;;;;14.17;10.03;;;;;;;5.29;78.60;98492.44;5141261;28;20184;-53
2023/03/15 04:34:51;;;;;;;11.70;9.73;;;;;;;5.26;78.22;98500.03;5141437;28;20187;-52
2023/03/15 04:37:18;;;;;;;13.47;9.90;;;;;;;5.28;78.39;98497.50;5141563;28;20167;-52
2023/03/15 04:39:44;;;;;;;16.90;11.67;;;;;;;5.32;77.93;98512.91;5141445;28;20189;-52
2023/03/15 04:42:11;;;;;;;13.50;9.83;;;;;;;5.35;78.35;98515.50;5141382;28;20162;-53
2023/03/15 04:44:38;;;;;;;18.60;10.27;;;;;;;5.38;77.76;98515.53;5141233;28;20211;-53
2023/03/15 04:47:06;;;;;;;16.30;9.93;;;;;;;5.36;77.70;98508.69;5141300;28;20159;-52
2023/03/15 04:49:33;;;;;;;15.40;9.90;;;;;;;5.27;78.11;98514.44;5141359;28;20153;-53
2023/03/15 04:52:00;;;;;;;13.23;9.63;;;;;;;5.06;78.68;98490.22;5141021;28;20173;-53
2023/03/15 04:54:27;;;;;;;22.60;10.50;;;;;;;5.14;78.39;98512.47;5141363;28;20160;-53
2023/03/15 04:56:54;;;;;;;15.97;11.40;;;;;;;5.09;78.85;98514.06;5141440;28;20182;-54
2023/03/15 04:59:21;;;;;;;18.33;11.87;;;;;;;5.03;79.08;98510.53;5141402;28;20220;-53
2023/03/15 05:01:48;;;;;;;16.00;13.40;;;;;;;4.95;79.65;98519.69;5140428;28;20414;-54
2023/03/15 05:04:17;;;;;;;15.27;12.10;;;;;;;5.00;79.13;98520.66;5141018;28;20241;-53
2023/03/15 05:06:43;;;;;;;19.93;13.07;;;;;;;4.98;79.03;98519.75;5141067;28;20153;-54
2023/03/15 05:09:16;;;;;;;18.30;11.87;;;;;;;4.81;80.26;98508.34;5141111;28;20250;-53
2023/03/15 05:11:43;;;;;;;18.13;12.43;;;;;;;4.82;80.74;98513.47;5141063;28;20149;-53
2023/03/15 05:14:10;;;;;;;15.50;12.70;;;;;;;4.87;80.28;98514.41;5140783;28;20169;-54
2023/03/15 05:16:36;;;;;;;16.90;12.73;;;;;;;4.91;80.22;98516.22;5140746;28;20161;-53
2023/03/15 05:19:03;;;;;;;23.23;15.90;;;;;;;4.94;80.60;98528.16;5140692;28;20159;-53
2023/03/15 05:21:32;;;;;;;20.07;16.97;;;;;;;4.97;80.60;98523.13;5140574;28;20155;-52
2023/03/15 05:23:58;;;;;;;26.17;16.10;;;;;;;4.87;80.23;98526.28;5140610;28;20186;-52
2023/03/15 05:26:25;;;;;;;22.20;15.67;;;;;;;4.90;79.78;98532.31;5156183;27;20183;-53
2023/03/15 05:28:52;;;;;;;22.67;18.33;;;;;;;4.89;80.47;98527.19;5160542;27;20469;-52
2023/03/15 05:31:19;;;;;;;26.77;18.73;;;;;;;4.90;80.51;98526.34;5161096;27;20150;-52
2023/03/15 05:33:46;;;;;;;26.17;20.13;;;;;;;4.69;80.55;98529.28;5161102;27;20174;-52
2023/03/15 05:36:14;;;;;;;32.83;20.63;;;;;;;4.76;80.91;98521.81;5160977;27;20160;-53
2023/03/15 05:38:42;;;;;;;36.13;20.80;;;;;;;4.60;81.23;98519.72;5161201;27;20155;-54
2023/03/15 05:41:09;;;;;;;30.07;18.80;;;;;;;4.66;81.62;98519.88;5148917;27;20198;-53
2023/03/15 05:43:36;;;;;;;26.60;19.50;;;;;;;4.71;81.17;98517.44;5142818;27;20228;-53
2023/03/15 05:46:02;;;;;;;35.70;27.05;;;;;;;4.76;80.64;98518.41;5157523;27;20420;-53
2023/03/15 05:48:31;;;;;;;27.80;20.33;;;;;;;4.73;81.25;98513.25;5160602;27;20180;-53
2023/03/15 05:50:58;;;;;;;32.93;22.00;;;;;;;4.72;80.89;98511.53;5159881;27;20166;-54
2023/03/15 05:53:24;;;;;;;37.00;23.27;;;;;;;4.60;81.40;98507.03;5160460;27;20168;-54
2023/03/15 05:55:52;;;;;;;29.77;21.27;;;;;;;4.69;80.90;98509.78;5156815;27;20158;-54
2023/03/15 05:58:19;;;;;;;34.17;21.50;;;;;;;4.61;81.39;98512.97;5151845;27;20169;-54
2023/03/15 06:00:48;;;;;;;28.57;20.03;;;;;;;4.67;81.64;98503.78;5150798;27;20182;-54
2023/03/15 06:03:14;;;;;;;25.07;18.27;;;;;;;4.61;80.96;98506.22;5159905;27;20184;-54
2023/03/15 06:05:42;;;;;;;30.67;20.63;;;;;;;4.60;81.55;98518.88;5160310;28;20190;-53
2023/03/15 06:08:10;;;;;;;27.55;21.63;;;;;;;4.73;81.53;98515.78;5159414;27;20453;-53
2023/03/15 06:10:36;;;;;;;31.40;18.90;;;;;;;4.78;81.38;98521.00;5160590;27;20190;-53
2023/03/15 06:13:05;;;;;;;29.37;20.90;;;;;;;4.92;80.53;98520.47;5160430;27;20170;-54
2023/03/15 06:15:32;;;;;;;31.53;21.27;;;;;;;5.12;80.46;98523.47;5160086;28;20159;-51
2023/03/15 06:17:59;;;;;;;33.67;22.13;;;;;;;5.32;78.92;98512.03;5160323;28;20208;-53
2023/03/15 06:20:26;;;;;;;28.10;21.03;;;;;;;5.55;78.46;98504.88;5160210;28;20154;-53
2023/03/15 06:22:53;;;;;;;33.07;22.90;;;;;;;5.75;77.40;98513.72;5160228;27;20158;-53
2023/03/15 06:25:19;;;;;;;30.63;22.20;;;;;;;5.86;76.00;98517.38;5159536;27;20226;-54
2023/03/15 06:27:46;;;;;;;28.47;19.07;;;;;;;5.75;75.57;98513.72;5159765;27;20259;-53
2023/03/15 06:30:16;;;;;;;24.93;16.40;;;;;;;5.85;75.52;98502.94;5159980;27;20183;-52
2023/03/15 06:32:42;;;;;;;22.83;15.93;;;;;;;6.01;74.69;98509.16;5159959;27;20157;-53
2023/03/15 06:35:09;;;;;;;23.37;16.97;;;;;;;6.06;75.07;98495.69;5159892;28;20224;-54
2023/03/15 06:37:36;;;;;;;21.33;15.57;;;;;;;6.04;74.16;98504.13;5159790;28;20157;-53
2023/03/15 06:40:06;;;;;;;24.40;16.00;;;;;;;5.96;74.03;98490.38;5159986;27;20213;-53
2023/03/15 06:42:32;;;;;;;28.20;16.20;;;;;;;6.22;73.24;98512.97;5159861;27;20230;-53
2023/03/15 06:45:00;;;;;;;22.53;16.57;;;;;;;6.39;73.50;98513.25;5159814;28;20203;-53
2023/03/15 06:47:28;;;;;;;21.90;15.73;;;;;;;6.45;72.57;98509.13;5159357;28;20156;-54
2023/03/15 06:49:55;;;;;;;24.33;14.60;;;;;;;6.57;71.48;98513.53;5159097;28;20397;-54
2023/03/15 06:52:21;;;;;;;19.60;14.80;;;;;;;6.57;71.42;98513.53;5159693;27;20178;-53
2023/03/15 06:54:48;;;;;;;18.43;14.73;;;;;;;6.66;71.45;98517.94;5159740;28;20194;-53
2023/03/15 06:57:15;;;;;;;25.17;14.67;;;;;;;6.73;71.45;98514.66;5162796;27;20179;-54
2023/03/15 06:59:42;;;;;;;18.80;12.73;;;;;;;6.91;71.00;98510.69;5163550;27;20157;-54
2023/03/15 07:02:14;;;;;;;20.23;13.57;;;;;;;7.03;70.13;98517.66;5163130;27;20199;-54
2023/03/15 07:04:44;;;;;;;21.83;12.63;;;;;;;7.16;70.13;98511.88;5163755;27;20188;-53
2023/03/15 07:07:10;;;;;;;17.10;12.60;;;;;;;7.25;69.11;98512.00;5163763;27;20157;-54
2023/03/15 07:09:37;;;;;;;15.13;12.70;;;;;;;7.12;68.59;98461.59;5163838;27;20201;-54
2023/03/15 07:12:04;;;;;;;19.83;13.20;;;;;;;7.31;68.02;98501.00;5163643;27;20156;-54
2023/03/15 07:14:33;;;;;;;20.53;12.77;;;;;;;7.36;69.03;98502.78;5163723;27;20185;-54
2023/03/15 07:16:59;;;;;;;15.43;12.60;;;;;;;7.22;68.84;98509.41;5163732;27;20156;-54
2023/03/15 07:19:26;;;;;;;19.07;14.47;;;;;;;7.29;68.92;98497.56;5163764;27;20220;-54
2023/03/15 07:21:54;;;;;;;18.80;12.57;;;;;;;7.50;67.92;98503.81;5163688;27;20175;-53
2023/03/15 07:24:21;;;;;;;17.90;12.73;;;;;;;7.56;68.00;98498.78;5163478;27;20189;-54
2023/03/15 07:26:49;;;;;;;28.47;14.17;;;;;;;7.74;66.95;98500.69;5162958;27;20162;-54
2023/03/15 07:29:17;;;;;;;17.30;13.97;;;;;;;7.98;66.23;98492.44;5163229;27;20172;-54
2023/03/15 07:31:44;;;;;;;20.90;13.77;;;;;;;8.17;65.51;98499.44;5163134;27;20181;-54
2023/03/15 07:34:10;;;;;;;18.98;14.90;;;;;;;8.17;64.90;98491.75;5162664;27;20393;-52
2023/03/15 07:36:37;;;;;;;16.10;12.90;;;;;;;7.95;64.49;98490.69;5162794;27;20171;-53
2023/03/15 07:39:05;;;;;;;17.98;13.13;;;;;;;7.58;66.10;98489.41;5163047;27;20461;-53
2023/03/15 07:41:32;;;;;;;16.83;12.43;;;;;;;7.49;67.65;98493.59;5163072;27;20158;-53
2023/03/15 07:43:59;;;;;;;16.10;12.17;;;;;;;7.36;68.15;98490.00;5160818;27;20207;-53
2023/03/15 07:46:26;;;;;;;17.73;12.70;;;;;;;7.39;68.57;98491.75;5157760;27;20169;-53
2023/03/15 07:48:53;;;;;;;19.20;12.10;;;;;;;7.40;69.19;98491.75;5162845;27;20183;-53
2023/03/15 07:51:19;;;;;;;18.15;14.05;;;;;;;7.64;68.26;98486.94;5162599;27;20393;-53
2023/03/15 07:53:46;;;;;;;18.67;13.20;;;;;;;7.57;68.09;98486.88;5162817;27;20164;-54
2023/03/15 07:56:14;;;;;;;18.27;12.67;;;;;;;7.35;69.49;98478.09;5162598;27;20163;-53
2023/03/15 07:58:41;;;;;;;19.90;13.33;;;;;;;7.41;69.71;98474.75;5160239;27;20195;-52
2023/03/15 08:01:08;;;;;;;19.97;13.63;;;;;;;7.53;69.93;98475.72;5157559;27;20194;-53
2023/03/15 08:03:35;;;;;;;22.97;15.13;;;;;;;7.61;69.38;98489.47;5158108;27;20192;-54
2023/03/15 08:06:02;;;;;;;26.07;15.47;;;;;;;7.95;68.30;98470.22;5162416;27;20192;-52
2023/03/15 08:08:29;;;;;;;25.40;17.00;;;;;;;8.11;67.05;98473.78;5161911;27;20168;-53
2023/03/15 08:10:58;;;;;;;23.23;18.80;;;;;;;8.04;66.46;98472.03;5162901;27;20184;-53
2023/03/15 08:13:26;;;;;;;23.30;17.03;;;;;;;8.13;66.81;98455.06;5162754;27;20169;-53
2023/03/15 08:15:53;;;;;;;23.77;16.27;;;;;;;8.13;66.24;98456.78;5162658;27;20174;-55
2023/03/15 08:18:19;;;;;;;22.87;16.03;;;;;;;8.11;66.20;98440.53;5157352;27;20172;-54
2023/03/15 08:20:46;;;;;;;19.93;15.83;;;;;;;7.92;67.04;98425.88;5161487;27;20170;-54
2023/03/15 08:23:15;;;;;;;23.20;15.73;;;;;;;8.18;66.75;98424.41;5157220;27;20164;-54
2023/03/15 08:25:42;;;;;;;20.77;16.33;;;;;;;8.16;66.03;98383.44;5159901;27;20189;-53
2023/03/15 08:28:10;;;;;;;17.07;13.63;;;;;;;8.26;64.08;98422.78;5155033;27;20186;-54
2023/03/15 08:30:38;;;;;;;19.77;14.10;;;;;;;8.48;64.00;98421.25;5160861;27;20228;-53
2023/03/15 08:33:05;;;;;;;17.03;13.83;;;;;;;8.70;62.98;98415.44;5161656;27;20165;-53
2023/03/15 08:35:33;;;;;;;18.73;14.33;;;;;;;8.78;62.89;98414.66;5161713;27;20176;-53
2023/03/15 08:38:01;;;;;;;17.47;14.40;;;;;;;8.96;62.11;98403.63;5161676;27;20154;-54
2023/03/15 08:40:29;;;;;;;16.30;12.93;;;;;;;9.06;60.68;98400.28;5161707;27;20160;-55
2023/03/15 08:42:57;;;;;;;19.87;14.73;;;;;;;9.15;58.72;98402.00;5161502;27;20154;-54
2023/03/15 08:45:25;;;;;;;19.83;15.07;;;;;;;9.24;59.35;98412.28;5161569;27;20237;-54
2023/03/15 08:47:56;;;;;;;16.47;13.90;;;;;;;9.16;59.27;98411.41;5158871;27;20225;-54
2023/03/15 08:50:23;;;;;;;20.65;14.80;;;;;;;8.95;59.67;98403.63;5148642;27;20443;-54
2023/03/15 08:52:50;;;;;;;18.77;13.77;;;;;;;8.47;60.89;98410.16;5161130;27;20179;-54
2023/03/15 08:55:17;;;;;;;18.57;14.30;;;;;;;8.40;61.26;98421.22;5161534;27;20195;-54
2023/03/15 08:57:44;;;;;;;20.20;17.05;;;;;;;8.70;61.02;98421.44;5156526;27;20480;-54
2023/03/15 09:00:19;;;;;;;20.37;15.80;;;;;;;8.92;61.11;98411.31;5159073;27;20161;-53
2023/03/15 09:02:47;;;;;;;17.00;13.63;;;;;;;8.99;60.34;98418.16;5160947;27;20171;-54
2023/03/15 09:05:16;;;;;;;17.20;14.67;;;;;;;9.17;59.96;98397.75;5161001;27;20183;-54
2023/03/15 09:07:43;;;;;;;17.67;15.30;;;;;;;9.59;58.83;98404.72;5154936;27;20158;-54
2023/03/15 09:10:13;;;;;;;21.47;15.87;;;;;;;9.94;57.72;98400.53;5153982;27;20166;-54
2023/03/15 09:12:40;;;;;;;18.73;15.20;;;;;;;10.15;56.43;98392.00;5161252;27;20150;-54
2023/03/15 09:15:09;;;;;;;22.27;16.73;;;;;;;10.37;55.65;98386.88;5158056;27;20160;-54
2023/03/15 09:17:36;;;;;;;16.50;14.73;;;;;;;10.53;54.51;98382.56;5160766;27;20150;-53
2023/03/15 09:20:06;;;;;;;17.13;13.60;;;;;;;10.49;54.12;98370.59;5160803;27;20177;-54
2023/03/15 09:22:35;;;;;;;18.17;14.30;;;;;;;10.41;52.95;98372.34;5160881;27;20162;-54
2023/03/15 09:25:01;;;;;;;16.20;14.13;;;;;;;10.29;52.75;98380.88;5160460;27;20205;-54
2023/03/15 09:27:30;;;;;;;20.80;16.13;;;;;;;10.39;53.41;98367.19;5157764;27;20214;-54
2023/03/15 09:29:56;;;;;;;18.10;14.73;;;;;;;10.55;53.35;98361.16;5160744;27;20195;-54
2023/03/15 09:32:23;;;;;;;16.53;14.53;;;;;;;10.70;52.88;98372.25;5160868;27;20175;-54
2023/03/15 09:34:51;;;;;;;18.77;14.67;;;;;;;10.79;53.18;98370.53;5153974;27;20166;-54
2023/03/15 09:37:19;;;;;;;17.70;13.80;;;;;;;10.92;52.68;98372.22;5160482;27;20183;-54
2023/03/15 09:39:48;;;;;;;22.50;15.30;;;;;;;11.21;52.13;98367.78;5160592;27;20180;-55
2023/03/15 09:42:23;;;;;;;23.73;15.53;;;;;;;11.49;50.95;98375.38;5157748;27;20156;-54
2023/03/15 09:45:01;;;;;;;18.83;16.23;;;;;;;11.74;50.38;98364.09;5160573;27;20189;-54
2023/03/15 09:47:37;;;;;;;20.47;15.47;;;;;;;11.83;49.31;98357.19;5160324;27;20203;-54
2023/03/15 09:50:07;;;;;;;17.60;13.90;;;;;;;11.93;48.76;98360.53;5158188;27;20162;-54
2023/03/15 09:52:42;;;;;;;19.50;14.63;;;;;;;11.96;47.93;98357.09;5160375;27;20174;-54
2023/03/15 09:55:16;;;;;;;19.00;15.47;;;;;;;11.98;47.36;98355.34;5160631;27;20175;-54
2023/03/15 09:57:48;;;;;;;17.97;14.73;;;;;;;12.03;47.78;98354.44;5160201;27;20153;-54
2023/03/15 10:00:19;;;;;;;19.17;15.13;;;;;;;11.81;48.86;98350.34;5160431;27;20161;-54
2023/03/15 10:02:58;;;;;;;18.57;15.47;;;;;;;12.12;47.96;98345.81;5160623;27;20179;-54
2023/03/15 10:05:32;;;;;;;20.13;15.13;;;;;;;12.31;47.38;98340.47;5160016;27;20267;-55
2023/03/15 10:07:59;;;;;;;18.23;15.07;;;;;;;12.38;46.68;98326.69;5160035;28;20214;-54
2023/03/15 10:10:34;;;;;;;20.20;15.57;;;;;;;12.23;46.36;98337.13;5155113;27;20162;-54
2023/03/15 10:13:18;;;;;;;20.43;16.20;;;;;;;12.27;46.44;98333.66;5151666;27;20173;-54
2023/03/15 10:16:04;;;;;;;19.85;17.10;;;;;;;12.36;46.15;98327.59;5158731;27;20401;-53
2023/03/15 10:18:47;;;;;;;18.37;15.57;;;;;;;12.37;45.58;98313.81;5157498;28;20170;-54
2023/03/15 10:21:22;;;;;;;17.67;14.17;;;;;;;12.36;45.70;98320.69;5160021;27;20180;-52
2023/03/15 10:23:53;;;;;;;20.33;15.47;;;;;;;12.38;44.70;98329.28;5159858;27;20156;-53
2023/03/15 10:26:28;;;;;;;19.27;14.73;;;;;;;11.97;45.58;98333.94;5159748;27;20189;-53
2023/03/15 10:28:55;;;;;;;20.93;14.83;;;;;;;12.16;45.68;98335.47;5159797;27;20200;-53
2023/03/15 10:31:26;;;;;;;20.33;14.87;;;;;;;12.45;45.10;98327.47;5161616;27;20154;-53
2023/03/15 10:33:54;;;;;;;16.57;14.73;;;;;;;12.66;44.96;98329.81;5164071;27;20162;-53
2023/03/15 10:36:23;;;;;;;18.57;15.03;;;;;;;12.77;44.62;98324.56;5164183;27;20180;-54
2023/03/15 10:38:50;;;;;;;22.17;15.93;;;;;;;12.88;44.16;98327.88;5164160;27;20188;-54
2023/03/15 10:41:30;;;;;;;16.97;14.60;;;;;;;12.90;43.59;98306.38;5163893;27;20176;-54
2023/03/15 10:44:00;;;;;;;22.57;16.03;;;;;;;12.95;43.43;98309.72;5164048;27;20172;-52
2023/03/15 10:46:27;;;;;;;21.90;16.17;;;;;;;13.14;43.54;98300.06;5163893;27;20192;-54
2023/03/15 10:48:58;;;;;;;18.97;15.80;;;;;;;13.38;43.30;98299.72;5161829;27;20162;-54
2023/03/15 10:51:27;;;;;;;22.97;16.50;;;;;;;13.35;42.98;98299.75;5149696;27;20170;-53
2023/03/15 10:53:56;;;;;;;23.07;16.03;;;;;;;13.23;42.81;98296.50;5143365;28;20214;-53
2023/03/15 10:56:26;;;;;;;22.63;16.48;;;;;;;13.26;42.64;98293.91;5142751;28;20402;-54
2023/03/15 10:58:55;;;;;;;21.57;15.77;;;;;;;13.32;42.81;98293.81;5154936;27;20180;-54
2023/03/15 11:01:26;;;;;;;18.97;16.10;;;;;;;13.43;42.69;98292.75;5148348;27;20192;-53
2023/03/15 11:04:13;;;;;;;20.83;15.90;;;;;;;13.53;42.69;98283.19;5152063;27;20183;-54
2023/03/15 11:06:43;;;;;;;22.17;14.00;;;;;;;13.64;41.69;98290.75;5142878;28;20202;-53
2023/03/15 11:09:13;;;;;;;20.97;15.87;;;;;;;13.58;41.79;98289.97;5142787;28;20276;-54
2023/03/15 11:12:02;;;;;;;19.20;14.60;;;;;;;13.69;41.65;98292.38;5153942;27;20212;-55
2023/03/15 11:14:36;;;;;;;17.27;13.93;;;;;;;13.74;40.94;98293.16;5157715;27;20173;-51
2023/03/15 11:17:05;;;;;;;14.93;13.33;;;;;;;13.76;40.67;98300.91;5163214;27;20249;-54
2023/03/15 11:19:34;;;;;;;17.37;14.03;;;;;;;13.66;40.78;98296.72;5163406;27;20185;-54
2023/03/15 11:22:02;;;;;;;17.57;13.57;;;;;;;13.81;40.86;98293.94;5163408;27;20158;-53
2023/03/15 11:24:31;;;;;;;19.97;15.13;;;;;;;13.82;40.59;98285.28;5163438;27;20163;-53
2023/03/15 11:27:01;;;;;;;18.30;15.10;;;;;;;13.87;41.03;98288.69;5163046;27;20193;-54
2023/03/15 11:29:30;;;;;;;18.40;15.47;;;;;;;13.98;41.03;98281.59;5163243;27;20178;-54
2023/03/15 11:32:01;;;;;;;20.43;15.27;;;;;;;14.01;41.07;98276.34;5158443;27;20169;-55
2023/03/15 11:34:45;;;;;;;21.57;15.17;;;;;;;14.02;40.96;98268.59;5151653;27;20238;-53